createdAt,value
2022-07-28T00:00:26.313Z,2.50
2022-07-28T00:05:29.715Z,2.17
2022-07-28T00:10:34.577Z,2.43
2022-07-28T00:15:39.528Z,2.40
2022-07-28T00:20:42.813Z,2.00
2022-07-28T00:25:46.139Z,2.30
2022-07-28T00:30:50.737Z,2.73
2022-07-28T00:35:54.234Z,2.60
2022-07-28T00:41:12.928Z,2.70
2022-07-28T00:46:19.436Z,3.00
2022-07-28T00:51:27.756Z,2.93
2022-07-28T00:56:31.170Z,2.60
2022-07-28T01:01:35.962Z,2.90
2022-07-28T01:06:53.577Z,2.80
2022-07-28T01:12:02.968Z,2.77
2022-07-28T01:17:12.516Z,2.60
2022-07-28T01:22:23.928Z,2.97
2022-07-28T01:27:46.873Z,2.80
2022-07-28T01:32:57.385Z,2.40
2022-07-28T01:38:04.795Z,2.70
2022-07-28T01:43:13.481Z,2.90
2022-07-28T01:48:21.099Z,3.00
2022-07-28T01:53:25.816Z,2.60
2022-07-28T01:58:31.781Z,3.10
2022-07-28T02:03:37.233Z,2.80
2022-07-28T02:08:42.108Z,3.00
2022-07-28T02:13:46.560Z,3.27
2022-07-28T02:18:52.995Z,2.57
2022-07-28T02:23:57.350Z,2.90
2022-07-28T02:29:04.347Z,3.07
2022-07-28T02:34:11.959Z,2.80
2022-07-28T02:39:21.691Z,2.87
2022-07-28T02:44:37.066Z,3.17
2022-07-28T02:49:44.481Z,3.03
2022-07-28T02:54:48.601Z,3.07
2022-07-28T02:59:53.192Z,3.40
2022-07-28T03:04:59.023Z,3.30
2022-07-28T03:10:03.501Z,3.17
2022-07-28T03:15:07.537Z,2.93
2022-07-28T03:20:13.529Z,3.17
2022-07-28T03:25:20.818Z,2.90
2022-07-28T03:30:28.313Z,3.10
2022-07-28T03:35:36.064Z,3.70
2022-07-28T03:40:39.958Z,3.13
2022-07-28T03:45:46.517Z,3.23
2022-07-28T03:50:51.813Z,3.63
2022-07-28T03:55:55.350Z,3.40
2022-07-28T04:00:59.620Z,3.50
2022-07-28T04:06:04.340Z,3.37
2022-07-28T04:11:07.552Z,3.63
2022-07-28T04:16:10.753Z,3.37
2022-07-28T04:21:15.379Z,3.37
2022-07-28T04:26:18.924Z,3.63
2022-07-28T04:31:22.164Z,3.70
2022-07-28T04:36:27.141Z,3.50
2022-07-28T04:41:30.373Z,3.47
2022-07-28T04:46:34.861Z,3.77
2022-07-28T04:51:39.410Z,3.70
2022-07-28T04:56:42.694Z,4.10
2022-07-28T05:01:46.167Z,4.90
2022-07-28T05:06:51.002Z,4.23
2022-07-28T05:11:54.265Z,4.20
2022-07-28T05:16:57.593Z,5.07
2022-07-28T05:22:02.769Z,5.67
2022-07-28T05:27:05.995Z,5.13
2022-07-28T05:32:16.575Z,5.80
2022-07-28T05:37:22.273Z,5.97
2022-07-28T05:42:26.582Z,6.10
2022-07-28T05:47:29.701Z,6.53
2022-07-28T05:52:34.213Z,6.90
2022-07-28T05:57:38.488Z,7.37
2022-07-28T06:02:41.949Z,6.77
2022-07-28T06:07:47.556Z,6.83
2022-07-28T06:12:52.599Z,6.83
2022-07-28T06:17:56.704Z,7.27
2022-07-28T06:23:01.304Z,7.30
2022-07-28T06:28:04.478Z,6.53
2022-07-28T06:33:07.828Z,6.77
2022-07-28T06:38:12.568Z,6.60
2022-07-28T06:43:15.766Z,6.00
2022-07-28T06:48:20.188Z,5.67
2022-07-28T06:53:24.740Z,4.77
2022-07-28T06:58:29.225Z,4.80
2022-07-28T07:03:32.349Z,4.90
2022-07-28T07:08:36.914Z,4.17
2022-07-28T07:13:40.054Z,4.90
2022-07-28T07:18:43.358Z,4.73
2022-07-28T07:23:47.880Z,4.83
2022-07-28T07:28:51.205Z,5.03
2022-07-28T07:33:54.353Z,4.37
2022-07-28T07:38:59.213Z,4.60
2022-07-28T07:44:02.408Z,5.10
2022-07-28T07:49:05.654Z,4.80
2022-07-28T07:54:10.292Z,4.57
2022-07-28T07:59:13.452Z,4.90
2022-07-28T08:04:16.976Z,4.83
2022-07-28T08:09:21.712Z,4.93
2022-07-28T08:14:25.217Z,5.07
2022-07-28T08:19:28.510Z,4.87
2022-07-28T08:24:34.377Z,4.87
2022-07-28T08:29:37.736Z,4.30
2022-07-28T08:34:40.954Z,5.00
2022-07-28T08:39:45.529Z,4.07
2022-07-28T08:44:53.711Z,4.60
2022-07-28T08:49:59.539Z,4.17
2022-07-28T08:55:06.631Z,4.40
2022-07-28T09:00:11.909Z,4.20
2022-07-28T09:05:15.714Z,3.67
2022-07-28T09:10:20.902Z,3.60
2022-07-28T09:15:24.093Z,3.60
2022-07-28T09:20:29.365Z,3.50
2022-07-28T09:25:35.257Z,3.30
2022-07-28T09:30:52.432Z,3.33
2022-07-28T09:36:00.071Z,3.20
2022-07-28T09:41:07.506Z,3.90
2022-07-28T09:46:12.985Z,3.50
2022-07-28T09:51:17.537Z,3.50
2022-07-28T09:56:23.481Z,3.50
2022-07-28T10:01:31.199Z,3.00
2022-07-28T10:06:40.742Z,3.33
2022-07-28T10:11:45.437Z,3.17
2022-07-28T10:16:52.790Z,3.07
2022-07-28T10:21:57.670Z,2.80
2022-07-28T10:27:05.264Z,3.17
2022-07-28T10:32:08.680Z,3.10
2022-07-28T10:37:19.773Z,2.80
2022-07-28T10:42:25.898Z,3.10
2022-07-28T10:47:35.941Z,3.10
2022-07-28T10:52:52.558Z,3.00
2022-07-28T10:58:11.251Z,2.73
2022-07-28T11:03:37.652Z,2.90
2022-07-28T11:08:41.030Z,3.10
2022-07-28T11:13:45.654Z,3.13
2022-07-28T11:19:36.529Z,2.73
2022-07-28T11:25:18.598Z,2.97
2022-07-28T11:30:53.964Z,3.10
2022-07-28T11:35:59.115Z,2.70
2022-07-28T11:41:02.251Z,2.57
2022-07-28T11:46:34.587Z,2.50
2022-07-28T11:51:52.498Z,2.70
2022-07-28T11:56:59.557Z,2.60
2022-07-28T12:02:04.158Z,3.00
2022-07-28T12:07:08.704Z,2.60
2022-07-28T12:12:12.631Z,2.60
2022-07-28T12:17:17.612Z,2.50
2022-07-28T12:22:21.251Z,2.40
2022-07-28T12:27:29.714Z,2.60
2022-07-28T12:32:37.941Z,2.50
2022-07-28T12:37:43.068Z,2.60
2022-07-28T12:42:46.856Z,2.60
2022-07-28T12:47:56.781Z,2.33
2022-07-28T12:53:04.504Z,2.30
2022-07-28T12:58:08.698Z,2.20
2022-07-28T13:03:25.087Z,2.50
2022-07-28T13:08:29.525Z,2.37
2022-07-28T13:13:45.453Z,2.47
2022-07-28T13:18:53.420Z,2.20
2022-07-28T13:23:57.482Z,2.60
2022-07-28T13:29:04.079Z,2.50
2022-07-28T13:34:17.931Z,2.30
2022-07-28T13:39:21.453Z,2.40
2022-07-28T13:44:24.617Z,2.40
2022-07-28T13:49:29.719Z,2.63
2022-07-28T13:54:33.271Z,2.43
2022-07-28T13:59:45.106Z,2.30
2022-07-28T14:04:50.670Z,2.23
2022-07-28T14:09:53.967Z,2.60
2022-07-28T14:14:57.342Z,2.40
2022-07-28T14:20:01.926Z,2.37
2022-07-28T14:25:05.478Z,2.40
2022-07-28T14:30:09.916Z,2.60
2022-07-28T14:35:14.569Z,2.53
2022-07-28T14:40:18.328Z,2.50
2022-07-28T14:45:21.650Z,2.63
2022-07-28T14:50:26.428Z,2.27
2022-07-28T14:55:30.497Z,2.53
2022-07-28T15:00:33.757Z,2.40
2022-07-28T15:05:38.338Z,2.53
2022-07-28T15:10:41.679Z,2.40
2022-07-28T15:15:45.051Z,2.40
2022-07-28T15:20:50.398Z,2.50
2022-07-28T15:25:53.551Z,2.37
2022-07-28T15:30:56.958Z,2.40
2022-07-28T15:36:02.122Z,2.20
2022-07-28T15:41:05.509Z,2.30
2022-07-28T15:46:11.225Z,2.37
2022-07-28T15:51:15.870Z,2.90
2022-07-28T15:56:19.035Z,2.37
2022-07-28T16:01:22.528Z,2.30
2022-07-28T16:06:47.487Z,2.60
2022-07-28T16:11:50.913Z,2.47
2022-07-28T16:16:54.063Z,2.40
2022-07-28T16:21:58.650Z,2.60
2022-07-28T16:27:01.797Z,2.30
2022-07-28T16:32:05.460Z,2.30
2022-07-28T16:37:10.022Z,2.57
2022-07-28T16:42:13.246Z,2.47
2022-07-28T16:47:16.721Z,2.27
2022-07-28T16:52:21.278Z,2.37
2022-07-28T16:57:24.651Z,2.43
2022-07-28T17:02:27.837Z,2.57
2022-07-28T17:07:32.453Z,2.50
2022-07-28T17:12:35.577Z,2.57
2022-07-28T17:17:38.838Z,2.40
2022-07-28T17:22:44.934Z,2.57
2022-07-28T17:27:48.394Z,2.47
2022-07-28T17:32:51.593Z,2.20
2022-07-28T17:37:56.965Z,2.47
2022-07-28T17:43:00.120Z,2.40
2022-07-28T17:48:03.267Z,2.50
2022-07-28T17:53:07.896Z,2.50
2022-07-28T17:58:13.602Z,2.30
2022-07-28T18:03:17.249Z,2.40
2022-07-28T18:08:22.077Z,2.40
2022-07-28T18:13:25.694Z,2.20
2022-07-28T18:18:29.002Z,2.10
2022-07-28T18:23:33.550Z,2.30
2022-07-28T18:28:36.762Z,2.40
2022-07-28T18:33:40.462Z,2.40
2022-07-28T18:38:45.072Z,2.40
2022-07-28T18:43:48.245Z,2.17
2022-07-28T18:48:56.662Z,2.20
2022-07-28T18:54:02.254Z,2.13
2022-07-28T18:59:05.616Z,2.30
2022-07-28T19:04:08.937Z,2.40
2022-07-28T19:09:13.485Z,2.73
2022-07-28T19:14:17.710Z,2.60
2022-07-28T19:19:21.427Z,2.50
2022-07-28T19:24:26.165Z,2.43
2022-07-28T19:29:29.458Z,2.40
2022-07-28T19:34:32.604Z,2.20
2022-07-28T19:39:38.241Z,2.20
2022-07-28T19:44:51.997Z,2.23
2022-07-28T19:49:57.494Z,2.47
2022-07-28T19:55:02.112Z,2.33
2022-07-28T20:00:09.147Z,2.57
2022-07-28T20:05:12.350Z,2.30
2022-07-28T20:10:16.930Z,2.47
2022-07-28T20:15:20.164Z,2.30
2022-07-28T20:20:23.633Z,2.50
2022-07-28T20:25:28.230Z,2.40
2022-07-28T20:30:33.311Z,2.30
2022-07-28T20:35:36.714Z,2.23
2022-07-28T20:40:41.447Z,2.63
2022-07-28T20:45:46.131Z,2.40
2022-07-28T20:50:49.493Z,2.73
2022-07-28T20:55:54.357Z,2.70
2022-07-28T21:00:57.896Z,2.30
2022-07-28T21:06:01.223Z,2.47
2022-07-28T21:11:07.716Z,2.23
2022-07-28T21:16:10.954Z,2.57
2022-07-28T21:21:15.636Z,2.50
2022-07-28T21:26:20.297Z,2.50
2022-07-28T21:31:23.830Z,2.40
2022-07-28T21:36:27.110Z,2.73
2022-07-28T21:41:36.474Z,2.43
2022-07-28T21:46:42.440Z,2.50
2022-07-28T21:51:47.524Z,2.50
2022-07-28T21:56:52.266Z,2.57
2022-07-28T22:01:55.604Z,3.23
2022-07-28T22:06:58.823Z,2.97
2022-07-28T22:12:03.515Z,3.00
2022-07-28T22:17:06.810Z,3.20
2022-07-28T22:22:12.536Z,2.53
2022-07-28T22:27:17.288Z,2.83
2022-07-28T22:32:28.777Z,2.80
2022-07-28T22:37:32.337Z,3.00
2022-07-28T22:42:37.121Z,3.00
2022-07-28T22:47:40.606Z,3.00
2022-07-28T22:52:43.851Z,2.87
2022-07-28T22:57:48.443Z,3.10
2022-07-28T23:02:51.735Z,3.03
2022-07-28T23:07:57.357Z,2.80
2022-07-28T23:13:03.462Z,2.90
2022-07-28T23:18:06.866Z,3.10
2022-07-28T23:23:10.497Z,3.07
2022-07-28T23:28:15.554Z,2.97
2022-07-28T23:33:55.350Z,2.70
2022-07-28T23:38:42.134Z,2.50
2022-07-28T23:43:46.897Z,2.57
2022-07-28T23:48:50.295Z,2.57
2022-07-28T23:53:56.482Z,2.50
2022-07-28T23:59:01.991Z,2.53
